createdAt,value
2018-02-12T00:02:07.820Z,3.82
2018-02-12T00:04:37.373Z,3.37
2018-02-12T00:07:06.886Z,3.28
2018-02-12T00:09:35.937Z,3.83
2018-02-12T00:12:05.080Z,3.70
2018-02-12T00:14:34.229Z,3.99
2018-02-12T00:17:03.881Z,3.69
2018-02-12T00:19:33.384Z,3.53
2018-02-12T00:22:02.709Z,3.73
2018-02-12T00:24:33.139Z,4.19
2018-02-12T00:27:02.417Z,3.82
2018-02-12T00:29:31.623Z,4.20
2018-02-12T00:32:01.127Z,3.88
2018-02-12T00:34:30.188Z,3.73
2018-02-12T00:36:59.246Z,3.62
2018-02-12T00:39:28.264Z,3.74
2018-02-12T00:41:57.730Z,3.41
2018-02-12T00:44:27.061Z,3.36
2018-02-12T00:46:56.436Z,3.58
2018-02-12T00:49:25.953Z,3.67
2018-02-12T00:51:55.313Z,3.82
2018-02-12T00:54:24.707Z,3.91
2018-02-12T00:56:54.221Z,3.54
2018-02-12T00:59:23.439Z,3.44
2018-02-12T01:01:52.519Z,3.39
2018-02-12T01:04:21.900Z,3.55
2018-02-12T01:06:51.013Z,3.37
2018-02-12T01:09:20.521Z,3.29
2018-02-12T01:11:49.708Z,3.26
2018-02-12T01:14:19.198Z,3.29
2018-02-12T01:16:48.934Z,3.30
2018-02-12T01:19:18.431Z,3.39
2018-02-12T01:21:48.732Z,3.26
2018-02-12T01:24:17.829Z,3.20
2018-02-12T01:26:47.282Z,3.36
2018-02-12T01:29:16.419Z,3.44
2018-02-12T01:31:45.576Z,3.45
2018-02-12T01:34:14.669Z,3.29
2018-02-12T01:36:43.865Z,3.29
2018-02-12T01:39:13.182Z,3.30
2018-02-12T01:41:42.445Z,3.29
2018-02-12T01:44:12.003Z,3.27
2018-02-12T01:46:40.980Z,3.30
2018-02-12T01:49:10.765Z,3.26
2018-02-12T01:51:39.785Z,3.23
2018-02-12T01:54:08.869Z,3.24
2018-02-12T01:56:37.744Z,3.22
2018-02-12T01:59:07.065Z,3.14
2018-02-12T02:01:36.234Z,3.07
2018-02-12T02:04:05.549Z,3.04
2018-02-12T02:06:34.569Z,3.14
2018-02-12T02:09:04.033Z,2.98
2018-02-12T02:11:33.268Z,3.24
2018-02-12T02:14:02.735Z,3.17
2018-02-12T02:16:32.248Z,3.22
2018-02-12T02:19:01.645Z,3.33
2018-02-12T02:21:30.680Z,3.26
2018-02-12T02:24:00.054Z,3.31
2018-02-12T02:26:29.116Z,3.27
2018-02-12T02:28:58.131Z,3.50
2018-02-12T02:31:27.137Z,3.23
2018-02-12T02:33:56.234Z,3.29
2018-02-12T02:36:25.145Z,3.49
2018-02-12T02:38:54.641Z,3.59
2018-02-12T02:41:23.889Z,3.58
2018-02-12T02:43:53.102Z,3.72
2018-02-12T02:46:22.318Z,3.67
2018-02-12T02:48:51.253Z,3.57
2018-02-12T02:51:20.186Z,3.71
2018-02-12T02:53:49.512Z,3.44
2018-02-12T02:56:18.633Z,3.71
2018-02-12T02:58:47.982Z,3.78
2018-02-12T03:01:17.004Z,3.82
2018-02-12T03:03:46.702Z,4.38
2018-02-12T03:06:15.749Z,3.97
2018-02-12T03:08:45.177Z,3.81
2018-02-12T03:11:14.182Z,3.62
2018-02-12T03:13:43.597Z,3.49
2018-02-12T03:16:12.829Z,3.52
2018-02-12T03:18:42.089Z,3.38
2018-02-12T03:21:11.400Z,3.33
2018-02-12T03:23:40.613Z,3.26
2018-02-12T03:26:09.748Z,3.17
2018-02-12T03:28:39.169Z,3.20
2018-02-12T03:31:08.486Z,3.38
2018-02-12T03:33:37.715Z,3.13
2018-02-12T03:36:07.061Z,3.01
2018-02-12T03:38:36.230Z,2.98
2018-02-12T03:41:05.484Z,2.93
2018-02-12T03:43:34.562Z,2.87
2018-02-12T03:46:05.617Z,2.80
2018-02-12T03:48:35.037Z,2.71
2018-02-12T03:51:04.450Z,2.67
2018-02-12T03:53:33.676Z,2.55
2018-02-12T03:56:02.684Z,2.50
2018-02-12T03:58:32.025Z,2.42
2018-02-12T04:01:01.345Z,2.43
2018-02-12T04:03:30.749Z,2.38
2018-02-12T04:06:00.035Z,2.27
2018-02-12T04:08:29.336Z,2.28
2018-02-12T04:10:58.846Z,2.14
2018-02-12T04:13:28.248Z,2.07
2018-02-12T04:15:57.305Z,1.98
2018-02-12T04:18:26.531Z,2.67
2018-02-12T04:20:55.580Z,2.69
2018-02-12T04:23:24.670Z,2.38
2018-02-12T04:25:53.897Z,2.44
2018-02-12T04:28:22.965Z,2.26
2018-02-12T04:30:51.999Z,2.06
2018-02-12T04:33:21.610Z,2.14
2018-02-12T04:35:51.166Z,2.39
2018-02-12T04:38:20.303Z,2.30
2018-02-12T04:40:49.460Z,2.31
2018-02-12T04:43:18.571Z,2.48
2018-02-12T04:45:47.921Z,2.52
2018-02-12T04:48:17.261Z,2.60
2018-02-12T04:50:47.685Z,2.76
2018-02-12T04:53:16.806Z,2.89
2018-02-12T04:55:45.798Z,2.98
2018-02-12T04:58:15.950Z,3.04
2018-02-12T05:00:45.305Z,3.11
2018-02-12T05:03:14.496Z,3.14
2018-02-12T05:05:43.951Z,3.20
2018-02-12T05:08:13.201Z,3.11
2018-02-12T05:10:42.529Z,3.15
2018-02-12T05:13:12.074Z,3.19
2018-02-12T05:15:41.005Z,3.18
2018-02-12T05:18:10.177Z,3.19
2018-02-12T05:20:39.153Z,3.26
2018-02-12T05:23:08.032Z,3.33
2018-02-12T05:25:37.945Z,3.41
2018-02-12T05:28:06.883Z,3.44
2018-02-12T05:30:36.174Z,3.61
2018-02-12T05:33:05.276Z,3.67
2018-02-12T05:35:34.446Z,3.82
2018-02-12T05:38:03.433Z,3.83
2018-02-12T05:40:32.942Z,3.83
2018-02-12T05:43:02.459Z,4.50
2018-02-12T05:45:31.517Z,4.04
2018-02-12T05:48:00.553Z,3.66
2018-02-12T05:50:29.848Z,3.50
2018-02-12T05:52:59.029Z,3.33
2018-02-12T05:55:28.105Z,3.36
2018-02-12T05:57:57.353Z,3.64
2018-02-12T06:00:26.379Z,4.06
2018-02-12T06:02:55.532Z,3.65
2018-02-12T06:05:24.811Z,3.55
2018-02-12T06:07:53.860Z,3.42
2018-02-12T06:10:22.885Z,3.53
2018-02-12T06:12:51.836Z,3.53
2018-02-12T06:15:21.215Z,3.53
2018-02-12T06:17:50.653Z,3.59
2018-02-12T06:20:20.190Z,3.78
2018-02-12T06:22:49.456Z,3.84
2018-02-12T06:25:18.665Z,3.97
2018-02-12T06:27:48.997Z,3.91
2018-02-12T06:30:18.270Z,4.02
2018-02-12T06:32:47.376Z,3.98
2018-02-12T06:35:16.699Z,4.07
2018-02-12T06:37:45.649Z,4.00
2018-02-12T06:40:14.875Z,5.90
2018-02-12T06:42:44.156Z,4.73
2018-02-12T06:45:13.633Z,4.52
2018-02-12T06:47:42.809Z,4.56
2018-02-12T06:50:12.046Z,4.39
2018-02-12T06:52:41.640Z,4.50
2018-02-12T06:55:10.934Z,4.34
2018-02-12T06:57:40.128Z,4.35
2018-02-12T07:00:09.297Z,4.35
2018-02-12T07:02:38.565Z,4.52
2018-02-12T07:05:07.824Z,4.72
2018-02-12T07:07:36.900Z,4.41
2018-02-12T07:12:33.920Z,4.50
2018-02-12T07:15:03.405Z,4.48
2018-02-12T07:17:32.681Z,4.60
2018-02-12T07:20:02.302Z,4.44
2018-02-12T07:22:31.344Z,4.66
2018-02-12T07:25:00.693Z,4.84
2018-02-12T07:27:29.890Z,4.57
2018-02-12T07:29:59.306Z,4.76
2018-02-12T07:32:28.907Z,4.87
2018-02-12T07:34:58.207Z,4.81
2018-02-12T07:37:27.365Z,4.76
2018-02-12T07:39:56.629Z,5.06
2018-02-12T07:42:25.928Z,4.88
2018-02-12T07:44:54.969Z,4.98
2018-02-12T07:47:24.230Z,4.77
2018-02-12T07:49:53.407Z,4.98
2018-02-12T07:52:22.554Z,4.91
2018-02-12T07:54:51.633Z,4.92
2018-02-12T07:57:20.702Z,5.01
2018-02-12T07:59:49.676Z,5.11
2018-02-12T08:02:19.080Z,5.15
2018-02-12T08:04:48.597Z,5.32
2018-02-12T08:07:18.558Z,5.12
2018-02-12T08:09:48.218Z,5.25
2018-02-12T08:12:17.281Z,5.24
2018-02-12T08:14:46.648Z,5.28
2018-02-12T08:17:16.038Z,5.59
2018-02-12T08:19:45.121Z,5.89
2018-02-12T08:22:14.212Z,5.36
2018-02-12T08:24:43.426Z,5.24
2018-02-12T08:27:12.614Z,5.63
2018-02-12T08:29:41.623Z,5.21
2018-02-12T08:32:10.813Z,5.07
2018-02-12T08:34:39.920Z,5.16
2018-02-12T08:37:09.391Z,5.35
2018-02-12T08:39:38.585Z,5.39
2018-02-12T08:42:08.029Z,5.43
2018-02-12T08:44:37.299Z,5.42
2018-02-12T08:47:06.305Z,5.35
2018-02-12T08:49:35.547Z,5.65
2018-02-12T08:52:04.779Z,5.58
2018-02-12T08:54:34.094Z,5.35
2018-02-12T08:57:03.373Z,5.35
2018-02-12T08:59:32.339Z,5.29
2018-02-12T09:02:01.390Z,5.26
2018-02-12T09:04:30.788Z,5.56
2018-02-12T09:07:00.199Z,5.28
2018-02-12T09:09:29.406Z,5.40
2018-02-12T09:11:58.669Z,5.64
2018-02-12T09:14:27.779Z,5.69
2018-02-12T09:16:56.913Z,5.51
2018-02-12T09:19:26.083Z,5.71
2018-02-12T09:21:55.261Z,5.92
2018-02-12T09:24:24.580Z,5.53
2018-02-12T09:26:53.879Z,5.54
2018-02-12T09:29:23.573Z,5.66
2018-02-12T09:31:52.708Z,5.64
2018-02-12T09:34:22.101Z,5.60
2018-02-12T09:36:51.253Z,5.52
2018-02-12T09:39:20.222Z,5.55
2018-02-12T09:41:49.396Z,5.50
2018-02-12T09:44:18.764Z,5.56
2018-02-12T09:46:48.106Z,5.73
2018-02-12T09:49:17.205Z,5.64
2018-02-12T09:51:46.551Z,5.94
2018-02-12T09:54:15.870Z,6.05
2018-02-12T09:56:45.028Z,6.04
2018-02-12T09:59:14.276Z,6.12
2018-02-12T10:01:43.575Z,6.15
2018-02-12T10:04:12.841Z,5.88
2018-02-12T10:06:42.201Z,5.81
2018-02-12T10:09:11.558Z,5.91
2018-02-12T10:11:40.693Z,6.01
2018-02-12T10:14:09.965Z,5.96
2018-02-12T10:16:39.158Z,6.02
2018-02-12T10:19:08.327Z,6.27
2018-02-12T10:21:37.857Z,6.09
2018-02-12T10:24:06.901Z,6.50
2018-02-12T10:26:36.179Z,6.88
2018-02-12T10:29:05.495Z,6.42
2018-02-12T10:31:34.529Z,6.71
2018-02-12T10:34:04.066Z,6.81
2018-02-12T10:36:33.061Z,6.88
2018-02-12T10:39:02.188Z,6.71
2018-02-12T10:41:31.343Z,7.24
2018-02-12T10:44:00.405Z,7.29
2018-02-12T10:46:29.732Z,7.27
2018-02-12T10:48:59.186Z,8.11
2018-02-12T10:51:28.768Z,7.58
2018-02-12T10:53:58.017Z,7.85
2018-02-12T10:56:27.463Z,7.57
2018-02-12T10:58:56.797Z,7.32
2018-02-12T11:01:25.649Z,7.37
2018-02-12T11:03:55.062Z,7.65
2018-02-12T11:06:24.682Z,7.45
2018-02-12T11:08:53.636Z,7.40
2018-02-12T11:11:23.018Z,7.62
2018-02-12T11:13:52.253Z,7.37
2018-02-12T11:16:21.973Z,7.87
2018-02-12T11:18:51.272Z,7.29
2018-02-12T11:21:20.735Z,7.39
2018-02-12T11:23:49.960Z,7.39
2018-02-12T11:26:19.285Z,7.38
2018-02-12T11:28:48.547Z,7.37
2018-02-12T11:31:17.698Z,7.42
2018-02-12T11:33:47.196Z,7.25
2018-02-12T11:36:16.745Z,7.28
2018-02-12T11:38:45.866Z,7.42
2018-02-12T11:41:15.081Z,7.45
2018-02-12T11:43:44.411Z,7.38
2018-02-12T11:46:13.454Z,7.63
2018-02-12T11:48:42.309Z,7.63
2018-02-12T12:03:00.862Z,7.16
2018-02-12T12:05:30.085Z,7.02
2018-02-12T12:07:59.314Z,7.11
2018-02-12T12:10:28.965Z,7.15
2018-02-12T12:12:58.621Z,6.89
2018-02-12T12:15:28.163Z,7.09
2018-02-12T12:17:57.328Z,7.34
2018-02-12T12:20:26.869Z,7.32
2018-02-12T12:22:56.153Z,7.10
2018-02-12T12:25:25.525Z,7.24
2018-02-12T12:27:54.857Z,7.30
2018-02-12T12:30:24.845Z,7.29
2018-02-12T12:32:53.927Z,7.25
2018-02-12T12:35:23.061Z,7.15
2018-02-12T12:37:52.755Z,7.40
2018-02-12T12:40:21.977Z,7.27
2018-02-12T12:42:51.077Z,7.24
2018-02-12T12:45:20.466Z,7.34
2018-02-12T12:47:49.897Z,7.30
2018-02-12T12:50:19.217Z,7.28
2018-02-12T12:52:48.337Z,7.10
2018-02-12T12:55:17.477Z,7.11
2018-02-12T12:57:46.973Z,7.11
2018-02-12T13:00:16.759Z,7.14
2018-02-12T13:02:45.754Z,7.12
2018-02-12T13:05:15.289Z,7.20
2018-02-12T13:07:44.725Z,7.16
2018-02-12T13:10:13.964Z,7.16
2018-02-12T13:12:43.176Z,7.14
2018-02-12T13:15:12.597Z,7.18
2018-02-12T13:17:41.700Z,7.20
2018-02-12T13:20:10.977Z,7.07
2018-02-12T13:22:40.424Z,7.01
2018-02-12T13:25:10.038Z,7.15
2018-02-12T13:27:39.772Z,7.20
2018-02-12T13:30:09.070Z,7.07
2018-02-12T13:32:38.690Z,7.02
2018-02-12T13:35:07.964Z,7.10
2018-02-12T13:37:38.821Z,7.05
2018-02-12T13:40:08.468Z,6.89
2018-02-12T13:42:38.155Z,6.81
2018-02-12T13:45:07.855Z,6.87
2018-02-12T13:47:37.250Z,6.92
2018-02-12T13:50:07.168Z,6.85
2018-02-12T13:52:36.875Z,7.05
2018-02-12T13:55:05.937Z,6.93
2018-02-12T13:57:35.795Z,6.91
2018-02-12T14:00:05.182Z,7.18
2018-02-12T14:02:34.575Z,7.01
2018-02-12T14:05:04.193Z,7.08
2018-02-12T14:07:33.972Z,7.19
2018-02-12T14:10:03.524Z,7.17
2018-02-12T14:12:32.764Z,7.20
2018-02-12T14:15:02.541Z,7.01
2018-02-12T14:17:32.420Z,7.01
2018-02-12T14:20:01.770Z,6.98
2018-02-12T14:22:31.297Z,6.98
2018-02-12T14:25:00.960Z,7.07
2018-02-12T14:27:30.328Z,7.00
2018-02-12T14:29:59.480Z,7.26
2018-02-12T14:32:28.852Z,7.24
2018-02-12T14:34:58.114Z,7.14
2018-02-12T14:37:27.331Z,7.08
2018-02-12T14:39:56.554Z,7.08
2018-02-12T14:42:26.545Z,7.04
2018-02-12T14:44:56.114Z,6.93
2018-02-12T14:47:25.697Z,6.97
2018-02-12T14:49:55.466Z,7.17
2018-02-12T14:52:25.016Z,7.63
2018-02-12T14:54:54.204Z,7.85
2018-02-12T14:57:23.726Z,7.37
2018-02-12T14:59:52.863Z,7.59
2018-02-12T15:02:22.122Z,7.84
2018-02-12T15:04:51.484Z,7.61
2018-02-12T15:07:21.113Z,7.32
2018-02-12T15:09:50.941Z,7.17
2018-02-12T15:12:20.547Z,7.05
2018-02-12T15:14:50.075Z,7.16
2018-02-12T15:17:19.456Z,7.76
2018-02-12T15:19:48.921Z,7.16
2018-02-12T15:22:18.201Z,6.95
2018-02-12T15:24:47.575Z,6.88
2018-02-12T15:27:16.995Z,6.78
2018-02-12T15:29:46.553Z,6.77
2018-02-12T15:32:15.982Z,6.91
2018-02-12T15:34:45.089Z,7.61
2018-02-12T15:37:14.691Z,7.35
2018-02-12T15:39:44.414Z,7.20
2018-02-12T15:42:13.621Z,6.84
2018-02-12T15:44:43.295Z,6.72
2018-02-12T15:47:12.908Z,6.70
2018-02-12T15:49:42.565Z,6.71
2018-02-12T15:52:12.279Z,6.61
2018-02-12T15:54:41.709Z,6.61
2018-02-12T15:57:11.140Z,6.66
2018-02-12T15:59:40.394Z,6.74
2018-02-12T16:02:10.083Z,6.68
2018-02-12T16:04:40.478Z,6.57
2018-02-12T16:07:09.862Z,6.56
2018-02-12T16:09:39.419Z,6.55
2018-02-12T16:12:08.873Z,6.70
2018-02-12T16:14:38.593Z,6.91
2018-02-12T16:17:08.138Z,6.80
2018-02-12T16:19:37.638Z,6.63
2018-02-12T16:22:07.101Z,6.68
2018-02-12T16:24:36.401Z,6.63
2018-02-12T16:27:05.449Z,6.76
2018-02-12T16:29:34.705Z,6.60
2018-02-12T16:32:04.390Z,6.72
2018-02-12T16:34:33.561Z,6.59
2018-02-12T16:37:03.702Z,6.68
2018-02-12T16:39:33.096Z,6.69
2018-02-12T16:42:02.277Z,6.66
2018-02-12T16:44:31.861Z,6.67
2018-02-12T16:47:01.265Z,6.54
2018-02-12T16:49:30.784Z,6.49
2018-02-12T16:52:00.304Z,6.50
2018-02-12T16:54:29.979Z,6.50
2018-02-12T16:56:59.333Z,6.48
2018-02-12T16:59:28.470Z,6.43
2018-02-12T17:01:58.052Z,6.72
2018-02-12T17:04:27.437Z,6.48
2018-02-12T17:06:56.837Z,6.64
2018-02-12T17:09:25.863Z,6.92
2018-02-12T17:11:55.266Z,6.62
2018-02-12T17:14:24.512Z,6.39
2018-02-12T17:16:53.773Z,6.42
2018-02-12T17:19:22.974Z,6.39
2018-02-12T17:21:52.129Z,6.38
2018-02-12T17:24:21.395Z,6.33
2018-02-12T17:26:50.566Z,6.42
2018-02-12T17:29:19.956Z,6.33
2018-02-12T17:31:49.193Z,6.34
2018-02-12T17:34:18.401Z,6.36
2018-02-12T17:36:47.373Z,6.42
2018-02-12T17:39:16.830Z,6.36
2018-02-12T17:41:45.877Z,6.30
2018-02-12T17:44:14.877Z,6.35
2018-02-12T17:46:44.505Z,6.42
2018-02-12T17:49:13.597Z,6.39
2018-02-12T17:51:42.814Z,6.49
2018-02-12T17:54:12.200Z,6.28
2018-02-12T17:56:41.999Z,6.23
2018-02-12T17:59:11.426Z,6.23
2018-02-12T18:01:40.972Z,6.20
2018-02-12T18:04:10.257Z,6.15
2018-02-12T18:06:39.744Z,6.19
2018-02-12T18:09:09.482Z,6.21
2018-02-12T18:11:39.006Z,6.20
2018-02-12T18:14:08.690Z,6.15
2018-02-12T18:16:38.010Z,6.12
2018-02-12T18:19:07.563Z,6.15
2018-02-12T18:21:37.026Z,6.11
2018-02-12T18:24:06.312Z,6.14
2018-02-12T18:26:35.526Z,6.11
2018-02-12T18:29:04.990Z,6.08
2018-02-12T18:31:35.114Z,6.08
2018-02-12T18:34:04.587Z,6.10
2018-02-12T18:36:33.874Z,6.06
2018-02-12T18:39:03.490Z,6.04
2018-02-12T18:41:32.830Z,6.02
2018-02-12T18:44:01.936Z,6.06
2018-02-12T18:46:31.246Z,6.05
2018-02-12T18:49:00.420Z,5.99
2018-02-12T18:51:29.733Z,5.93
2018-02-12T18:53:58.979Z,5.99
2018-02-12T18:56:28.332Z,6.10
2018-02-12T18:58:57.656Z,6.06
2018-02-12T19:01:27.104Z,5.98
2018-02-12T19:03:56.497Z,6.24
2018-02-12T19:06:25.788Z,6.56
2018-02-12T19:08:55.261Z,6.13
2018-02-12T19:11:24.565Z,5.99
2018-02-12T19:13:54.022Z,6.16
2018-02-12T19:16:23.457Z,6.12
2018-02-12T19:18:52.686Z,6.34
2018-02-12T19:21:21.926Z,6.33
2018-02-12T19:23:51.156Z,6.07
2018-02-12T19:26:20.586Z,5.93
2018-02-12T19:28:49.773Z,6.02
2018-02-12T19:31:19.063Z,5.87
2018-02-12T19:33:48.396Z,5.82
2018-02-12T19:36:17.721Z,5.91
2018-02-12T19:38:52.373Z,6.24
2018-02-12T19:41:21.589Z,5.91
2018-02-12T19:43:50.842Z,5.86
2018-02-12T19:46:20.374Z,5.88
2018-02-12T19:48:49.916Z,5.87
2018-02-12T19:51:19.363Z,5.87
2018-02-12T19:53:48.697Z,5.91
2018-02-12T19:56:17.984Z,5.89
2018-02-12T19:58:47.598Z,5.86
2018-02-12T20:01:17.207Z,5.96
2018-02-12T20:03:46.298Z,5.97
2018-02-12T20:06:15.594Z,6.02
2018-02-12T20:08:44.761Z,6.43
2018-02-12T20:11:14.579Z,6.43
2018-02-12T20:13:43.898Z,6.09
2018-02-12T20:16:13.088Z,5.91
2018-02-12T20:18:42.592Z,5.97
2018-02-12T20:21:11.933Z,5.84
2018-02-12T20:23:41.866Z,6.00
2018-02-12T20:26:11.074Z,5.93
2018-02-12T20:28:40.417Z,5.84
2018-02-12T20:31:09.829Z,5.83
2018-02-12T20:33:39.448Z,5.88
2018-02-12T20:36:09.160Z,5.88
2018-02-12T20:38:38.630Z,5.84
2018-02-12T20:41:08.242Z,5.83
2018-02-12T20:43:38.106Z,5.85
2018-02-12T20:46:07.390Z,5.84
2018-02-12T20:48:36.972Z,5.81
2018-02-12T20:51:06.563Z,5.84
2018-02-12T20:53:35.929Z,5.86
2018-02-12T20:56:05.350Z,5.86
2018-02-12T20:58:34.517Z,5.86
2018-02-12T21:01:03.987Z,5.81
2018-02-12T21:03:33.584Z,5.88
2018-02-12T21:06:03.081Z,5.88
2018-02-12T21:08:32.111Z,5.86
2018-02-12T21:11:01.371Z,5.77
2018-02-12T21:13:30.890Z,5.78
2018-02-12T21:16:00.588Z,5.77
2018-02-12T21:18:30.377Z,5.72
2018-02-12T21:21:00.113Z,5.73
2018-02-12T21:23:29.297Z,5.74
2018-02-12T21:25:58.957Z,5.79
2018-02-12T21:28:28.290Z,5.74
2018-02-12T21:30:57.966Z,5.70
2018-02-12T21:33:27.362Z,6.31
2018-02-12T21:35:56.456Z,7.42
2018-02-12T21:38:25.940Z,6.14
2018-02-12T21:40:55.330Z,5.97
2018-02-12T21:43:24.706Z,5.91
2018-02-12T21:45:54.388Z,5.90
2018-02-12T21:48:23.616Z,5.84
2018-02-12T21:50:53.102Z,5.84
2018-02-12T21:53:22.733Z,5.86
2018-02-12T21:55:52.215Z,5.94
2018-02-12T21:58:21.842Z,6.08
2018-02-12T22:00:51.002Z,5.98
2018-02-12T22:03:20.358Z,5.89
2018-02-12T22:05:49.935Z,5.90
2018-02-12T22:08:19.560Z,5.87
2018-02-12T22:10:49.414Z,5.92
2018-02-12T22:13:18.641Z,5.96
2018-02-12T22:15:48.200Z,5.90
2018-02-12T22:18:17.374Z,5.81
2018-02-12T22:20:46.509Z,5.92
2018-02-12T22:23:15.914Z,5.85
2018-02-12T22:25:44.861Z,5.83
2018-02-12T22:28:14.137Z,5.84
2018-02-12T22:30:43.375Z,5.83
2018-02-12T22:33:12.470Z,5.83
2018-02-12T22:35:41.672Z,5.86
2018-02-12T22:38:11.107Z,5.88
2018-02-12T22:40:40.516Z,5.89
2018-02-12T22:43:09.907Z,5.77
2018-02-12T22:45:39.334Z,5.73
2018-02-12T22:48:08.452Z,5.67
2018-02-12T22:50:37.885Z,5.68
2018-02-12T22:53:07.044Z,5.68
2018-02-12T22:55:36.497Z,5.78
2018-02-12T22:58:06.005Z,6.04
2018-02-12T23:00:35.349Z,6.09
2018-02-12T23:03:04.682Z,5.94
2018-02-12T23:05:34.114Z,6.29
2018-02-12T23:08:03.318Z,6.44
2018-02-12T23:10:32.198Z,6.23
2018-02-12T23:13:01.933Z,5.92
2018-02-12T23:15:34.122Z,5.81
2018-02-12T23:18:03.602Z,5.67
2018-02-12T23:20:32.904Z,5.64
2018-02-12T23:23:02.231Z,5.55
2018-02-12T23:25:31.412Z,5.58
2018-02-12T23:28:00.694Z,5.51
2018-02-12T23:30:30.112Z,5.50
2018-02-12T23:32:59.113Z,5.50
2018-02-12T23:35:28.779Z,5.51
2018-02-12T23:37:57.868Z,5.55
2018-02-12T23:40:27.283Z,5.51
2018-02-12T23:42:56.464Z,5.49
2018-02-12T23:45:25.804Z,5.53
2018-02-12T23:47:54.889Z,5.55
2018-02-12T23:50:24.212Z,5.50
2018-02-12T23:52:53.387Z,5.52
2018-02-12T23:55:22.548Z,5.51
2018-02-12T23:57:51.567Z,5.51
